Time;durP1;ratioP1;P1;durP2;ratioP2;P2;SDS_P1;SDS_P2;PMS_P1;PMS_P2;Temp;Humidity;BMP_temperature;BMP_pressure;BME280_temperature;BME280_humidity;BME280_pressure;Samples;Min_cycle;Max_cycle;Signal;HPM_P1;HPM_P2
2023/04/26 00:01:22;;;;;;;5.97;3.60;;;14.90;99.90;;;;;;5093665;28;20468;-72
2023/04/26 00:03:48;;;;;;;5.35;3.22;;;14.90;99.90;;;;;;5093282;28;20031;-71
2023/04/26 00:06:15;;;;;;;5.03;3.40;;;14.90;99.90;;;;;;5093091;28;20510;-72
2023/04/26 00:08:42;;;;;;;4.65;3.20;;;14.90;99.90;;;;;;5102534;28;20403;-71
2023/04/26 00:11:07;;;;;;;5.82;3.17;;;15.00;99.90;;;;;;5113307;28;20043;-72
2023/04/26 00:13:33;;;;;;;4.15;2.70;;;14.90;99.90;;;;;;5112991;28;20476;-72
2023/04/26 00:15:59;;;;;;;3.90;2.83;;;14.90;99.90;;;;;;5113545;28;20028;-72
2023/04/26 00:18:25;;;;;;;3.63;2.72;;;14.90;99.90;;;;;;5113449;28;20019;-72
2023/04/26 00:20:50;;;;;;;4.25;2.70;;;14.90;99.90;;;;;;5113603;28;20034;-72
2023/04/26 00:23:17;;;;;;;3.50;2.40;;;14.90;99.90;;;;;;5113295;28;20032;-71
2023/04/26 00:25:42;;;;;;;2.85;2.10;;;14.90;99.90;;;;;;5113099;28;20435;-72
2023/04/26 00:28:08;;;;;;;4.00;2.58;;;14.90;99.90;;;;;;5112838;28;20016;-72
2023/04/26 00:30:36;;;;;;;2.33;2.13;;;14.90;99.90;;;;;;5113020;28;20039;-71
2023/04/26 00:33:02;;;;;;;3.65;2.55;;;14.90;99.90;;;;;;5113290;28;20055;-71
2023/04/26 00:35:28;;;;;;;4.00;2.47;;;14.90;99.90;;;;;;5112857;28;20106;-71
2023/04/26 00:37:54;;;;;;;3.15;2.50;;;14.90;99.90;;;;;;5112708;28;20100;-71
2023/04/26 00:40:19;;;;;;;4.75;2.75;;;14.90;99.90;;;;;;5113016;28;20038;-71
2023/04/26 00:42:45;;;;;;;4.82;2.90;;;14.90;99.90;;;;;;5112588;28;20024;-72
2023/04/26 00:45:11;;;;;;;4.75;2.67;;;14.90;99.90;;;;;;5094709;28;20500;-71
2023/04/26 00:47:37;;;;;;;4.38;2.92;;;14.90;99.90;;;;;;5112734;28;20726;-72
2023/04/26 00:50:03;;;;;;;4.03;2.78;;;14.90;99.90;;;;;;5093997;28;20095;-72
2023/04/26 00:52:30;;;;;;;6.18;3.00;;;14.90;99.90;;;;;;5112823;28;21151;-72
2023/04/26 00:54:56;;;;;;;5.13;2.92;;;14.90;99.90;;;;;;5112649;28;20106;-71
2023/04/26 00:57:22;;;;;;;5.05;3.03;;;14.90;99.90;;;;;;5112635;28;20027;-71
2023/04/26 00:59:48;;;;;;;7.45;3.10;;;15.00;99.90;;;;;;5112658;28;20038;-71
2023/04/26 01:02:14;;;;;;;6.10;2.85;;;14.90;99.90;;;;;;5112553;28;20020;-72
2023/04/26 01:04:40;;;;;;;5.80;2.70;;;14.90;99.90;;;;;;5112752;28;20032;-72
2023/04/26 01:07:07;;;;;;;5.47;2.60;;;14.90;99.90;;;;;;5112404;28;20043;-71
2023/04/26 01:09:33;;;;;;;4.45;2.70;;;14.90;99.90;;;;;;5112302;28;20066;-71
2023/04/26 01:12:02;;;;;;;5.07;2.47;;;14.90;99.90;;;;;;5111967;28;20086;-72
2023/04/26 01:14:28;;;;;;;4.72;2.70;;;14.90;99.90;;;;;;5112414;28;20031;-72
2023/04/26 01:16:55;;;;;;;7.45;2.95;;;15.00;99.90;;;;;;5112380;28;20160;-72
2023/04/26 01:19:22;;;;;;;4.35;2.25;;;14.90;99.90;;;;;;5112363;28;20148;-71
2023/04/26 01:21:47;;;;;;;6.60;2.00;;;14.90;99.90;;;;;;5112147;28;20085;-72
2023/04/26 01:24:13;;;;;;;4.82;2.40;;;14.90;99.90;;;;;;5112302;28;20031;-72
2023/04/26 01:26:44;;;;;;;3.22;1.95;;;14.90;99.90;;;;;;5112106;28;20027;-72
2023/04/26 01:29:20;;;;;;;3.38;2.20;;;14.80;99.90;;;;;;5112001;28;20539;-71
2023/04/26 01:31:46;;;;;;;2.67;2.10;;;14.90;99.90;;;;;;5111877;28;20042;-71
2023/04/26 01:34:12;;;;;;;1.83;1.73;;;14.90;99.90;;;;;;5112133;28;20491;-71
2023/04/26 01:36:38;;;;;;;3.78;2.03;;;14.90;99.90;;;;;;5112197;28;20031;-71
2023/04/26 01:39:04;;;;;;;2.33;1.80;;;14.90;99.90;;;;;;5111801;28;20020;-71
2023/04/26 01:41:31;;;;;;;2.40;1.80;;;14.90;99.90;;;;;;5111557;28;20484;-72
2023/04/26 01:43:57;;;;;;;3.78;1.90;;;14.90;99.90;;;;;;5111894;28;20102;-71
2023/04/26 01:46:22;;;;;;;3.35;1.85;;;14.90;99.90;;;;;;5111719;28;20103;-71
2023/04/26 01:48:48;;;;;;;2.83;1.70;;;14.90;99.90;;;;;;5111802;28;20028;-72
2023/04/26 01:51:14;;;;;;;2.92;1.73;;;14.90;99.90;;;;;;5111697;28;20111;-72
2023/04/26 01:53:39;;;;;;;2.70;1.63;;;14.90;99.90;;;;;;5112015;28;20024;-72
2023/04/26 01:56:05;;;;;;;4.15;1.60;;;14.90;99.90;;;;;;5111303;28;20023;-71
2023/04/26 01:58:31;;;;;;;1.85;1.65;;;14.90;99.90;;;;;;5111712;28;20051;-71
2023/04/26 02:01:05;;;;;;;2.38;1.65;;;14.90;99.90;;;;;;5111731;28;20480;-72
2023/04/26 02:03:31;;;;;;;3.60;1.70;;;14.90;99.90;;;;;;5115024;28;20023;-71
2023/04/26 02:05:56;;;;;;;4.15;1.80;;;15.00;99.90;;;;;;5115744;28;20035;-71
2023/04/26 02:08:22;;;;;;;2.42;1.80;;;15.00;99.90;;;;;;5115298;28;20024;-71
2023/04/26 02:10:48;;;;;;;3.33;1.90;;;15.00;99.90;;;;;;5115895;28;20051;-72
2023/04/26 02:13:14;;;;;;;3.10;2.00;;;15.00;99.90;;;;;;5115777;28;20046;-72
2023/04/26 02:15:40;;;;;;;3.15;2.30;;;15.00;99.90;;;;;;5116167;28;20395;-72
2023/04/26 02:18:06;;;;;;;4.85;2.53;;;15.00;99.90;;;;;;5097424;28;20019;-72
2023/04/26 02:20:32;;;;;;;2.85;2.35;;;14.90;99.90;;;;;;5115612;28;20028;-71
2023/04/26 02:22:58;;;;;;;4.22;2.20;;;14.90;99.90;;;;;;5115409;28;20395;-72
2023/04/26 02:25:24;;;;;;;3.83;2.10;;;14.90;99.90;;;;;;5115987;28;20023;-72
2023/04/26 02:27:49;;;;;;;3.33;2.17;;;15.00;99.90;;;;;;5115377;28;20024;-71
2023/04/26 02:30:15;;;;;;;2.88;1.90;;;14.90;99.90;;;;;;5115463;28;20385;-72
2023/04/26 02:32:41;;;;;;;3.20;2.03;;;15.00;99.90;;;;;;5097225;28;20123;-71
2023/04/26 02:35:07;;;;;;;2.92;1.83;;;15.00;99.90;;;;;;5115282;28;20034;-72
2023/04/26 02:37:33;;;;;;;2.70;2.03;;;14.90;99.90;;;;;;5115644;28;20105;-71
2023/04/26 02:39:59;;;;;;;3.45;2.30;;;15.00;99.90;;;;;;5115336;28;20024;-71
2023/04/26 02:42:24;;;;;;;4.25;2.03;;;15.00;99.90;;;;;;5115154;28;20023;-71
2023/04/26 02:44:50;;;;;;;5.32;2.40;;;15.00;99.90;;;;;;5115063;28;20034;-71
2023/04/26 02:47:16;;;;;;;7.07;2.65;;;14.90;99.90;;;;;;5115175;28;20527;-71
2023/04/26 02:49:42;;;;;;;3.03;2.33;;;14.90;99.90;;;;;;5115348;28;20084;-72
2023/04/26 02:52:07;;;;;;;4.13;2.20;;;14.90;99.90;;;;;;5114634;28;20143;-71
2023/04/26 02:54:33;;;;;;;3.47;2.10;;;15.00;99.90;;;;;;5115125;28;20069;-71
2023/04/26 02:56:59;;;;;;;4.47;2.30;;;15.00;99.90;;;;;;5096706;28;20034;-71
2023/04/26 02:59:25;;;;;;;4.40;2.25;;;15.00;99.90;;;;;;5114861;28;20028;-72
2023/04/26 03:01:51;;;;;;;3.97;2.40;;;15.00;99.90;;;;;;5114808;28;20023;-71
2023/04/26 03:04:17;;;;;;;4.35;2.50;;;15.00;99.90;;;;;;5114976;28;20031;-71
2023/04/26 03:06:42;;;;;;;4.07;2.70;;;15.00;99.90;;;;;;5114462;28;20115;-70
2023/04/26 03:09:08;;;;;;;3.28;2.60;;;15.00;99.90;;;;;;5114573;28;20023;-71
2023/04/26 03:11:34;;;;;;;7.15;2.72;;;14.90;99.90;;;;;;5114254;28;20048;-71
2023/04/26 03:13:59;;;;;;;4.72;2.60;;;15.00;99.90;;;;;;5096270;28;20077;-72
2023/04/26 03:16:27;;;;;;;4.43;2.70;;;15.00;99.90;;;;;;5114785;28;20472;-72
2023/04/26 03:18:53;;;;;;;3.20;2.40;;;15.00;99.90;;;;;;5114569;28;20046;-72
2023/04/26 03:21:19;;;;;;;4.63;2.40;;;15.00;99.90;;;;;;5114285;28;20028;-71
2023/04/26 03:23:45;;;;;;;3.00;2.70;;;15.00;99.90;;;;;;5114691;28;20031;-71
2023/04/26 03:26:11;;;;;;;5.20;2.47;;;14.90;99.90;;;;;;5114377;28;20102;-71
2023/04/26 03:28:37;;;;;;;3.13;2.30;;;14.90;99.90;;;;;;5114508;28;20027;-71
2023/04/26 03:31:02;;;;;;;3.65;2.20;;;14.90;99.90;;;;;;5114298;28;20403;-72
2023/04/26 03:33:30;;;;;;;3.58;2.10;;;14.90;99.90;;;;;;5114287;28;20027;-71
2023/04/26 03:35:56;;;;;;;3.92;2.72;;;14.90;99.90;;;;;;5114099;28;20019;-72
2023/04/26 03:38:22;;;;;;;4.22;2.80;;;14.90;99.90;;;;;;5114111;28;20031;-70
2023/04/26 03:40:48;;;;;;;4.25;2.80;;;14.90;99.90;;;;;;5114211;28;20496;-71
2023/04/26 03:43:13;;;;;;;5.70;3.17;;;14.90;99.90;;;;;;5114037;28;20027;-71
2023/04/26 03:45:39;;;;;;;4.40;2.60;;;14.90;99.90;;;;;;5113926;28;20023;-72
2023/04/26 03:48:05;;;;;;;5.32;2.38;;;14.90;99.90;;;;;;5114327;28;20419;-71
2023/04/26 03:50:31;;;;;;;2.63;2.33;;;15.00;99.90;;;;;;5113563;28;20403;-71
2023/04/26 03:52:57;;;;;;;4.90;2.38;;;14.90;99.90;;;;;;5113993;28;20441;-71
2023/04/26 03:55:22;;;;;;;3.20;2.10;;;15.00;99.90;;;;;;5113917;28;20024;-72
2023/04/26 03:57:48;;;;;;;3.72;2.10;;;15.00;99.90;;;;;;5113734;28;20115;-72
2023/04/26 04:00:14;;;;;;;3.75;2.20;;;15.00;99.90;;;;;;5095387;28;20028;-71
2023/04/26 04:02:40;;;;;;;2.95;2.40;;;15.00;99.90;;;;;;5113758;28;20019;-71
2023/04/26 04:05:07;;;;;;;4.65;2.45;;;15.00;99.90;;;;;;5113364;28;20106;-72
2023/04/26 04:07:33;;;;;;;3.92;2.30;;;14.90;99.90;;;;;;5113219;28;20035;-71
2023/04/26 04:09:59;;;;;;;3.47;2.15;;;15.00;99.90;;;;;;5113866;28;20028;-71
2023/04/26 04:12:25;;;;;;;2.70;2.22;;;14.90;99.90;;;;;;5113380;28;20051;-71
2023/04/26 04:14:51;;;;;;;2.25;2.00;;;15.00;99.90;;;;;;5113255;28;20077;-71
2023/04/26 04:17:20;;;;;;;2.88;1.90;;;15.00;99.90;;;;;;5113579;28;20403;-71
2023/04/26 04:19:45;;;;;;;2.30;1.73;;;15.00;99.90;;;;;;5112874;28;20031;-71
2023/04/26 04:22:11;;;;;;;2.78;1.75;;;14.90;99.90;;;;;;5113341;28;20015;-71
2023/04/26 04:24:37;;;;;;;3.15;1.60;;;14.90;99.90;;;;;;5112598;28;20495;-71
2023/04/26 04:27:03;;;;;;;2.35;1.70;;;15.00;99.90;;;;;;5113130;28;20404;-71
2023/04/26 04:29:29;;;;;;;2.53;1.80;;;15.00;99.90;;;;;;5113457;28;20027;-71
2023/04/26 04:31:55;;;;;;;4.65;1.70;;;15.00;99.90;;;;;;5112935;28;20459;-72
2023/04/26 04:34:22;;;;;;;2.67;1.70;;;15.00;99.90;;;;;;5112649;28;20043;-72
2023/04/26 04:36:49;;;;;;;1.83;1.63;;;15.00;99.90;;;;;;5112986;28;20106;-70
2023/04/26 04:39:16;;;;;;;2.17;1.80;;;14.90;99.90;;;;;;5113153;28;20373;-71
2023/04/26 04:41:47;;;;;;;2.20;2.00;;;14.90;99.90;;;;;;5113171;28;20492;-71
2023/04/26 04:44:17;;;;;;;3.72;2.20;;;14.90;99.90;;;;;;5112947;28;20019;-71
2023/04/26 04:46:43;;;;;;;3.05;2.10;;;14.90;99.90;;;;;;5113000;28;20523;-72
2023/04/26 04:49:11;;;;;;;2.30;2.10;;;14.90;99.90;;;;;;5112576;28;20042;-71
2023/04/26 04:51:37;;;;;;;2.45;2.00;;;14.90;99.90;;;;;;5112549;28;20039;-70
2023/04/26 04:54:13;;;;;;;3.22;2.05;;;14.90;99.90;;;;;;5112854;28;20051;-71
2023/04/26 04:56:39;;;;;;;2.65;1.90;;;15.00;99.90;;;;;;5112606;28;20500;-72
2023/04/26 04:59:05;;;;;;;2.20;2.00;;;15.00;99.90;;;;;;5112656;28;20012;-72
2023/04/26 05:01:40;;;;;;;5.22;2.40;;;15.00;99.90;;;;;;5112576;28;20042;-72
2023/04/26 05:04:06;;;;;;;3.60;2.58;;;14.90;99.90;;;;;;5112333;28;20020;-72
2023/04/26 05:06:32;;;;;;;2.50;2.30;;;14.90;99.90;;;;;;5112575;28;20038;-71
2023/04/26 05:08:58;;;;;;;3.75;2.60;;;14.90;99.90;;;;;;5112467;28;20032;-71
2023/04/26 05:11:24;;;;;;;4.00;2.80;;;15.00;99.90;;;;;;5112009;28;20047;-72
2023/04/26 05:13:49;;;;;;;2.90;2.70;;;14.90;99.90;;;;;;5112764;28;20377;-72
2023/04/26 05:16:15;;;;;;;4.40;3.17;;;14.90;99.90;;;;;;5112314;28;20507;-71
2023/04/26 05:18:42;;;;;;;3.47;3.00;;;14.90;99.90;;;;;;5111845;28;20047;-72
2023/04/26 05:21:07;;;;;;;5.32;3.47;;;14.90;99.90;;;;;;5112224;28;20104;-72
2023/04/26 05:23:33;;;;;;;3.90;2.88;;;14.90;99.90;;;;;;5112345;28;20476;-71
2023/04/26 05:26:06;;;;;;;5.55;3.88;;;14.90;99.90;;;;;;5111747;28;20484;-72
2023/04/26 05:28:33;;;;;;;5.45;3.50;;;15.00;99.90;;;;;;5111060;28;20033;-71
2023/04/26 05:30:58;;;;;;;6.47;3.70;;;15.00;99.90;;;;;;5111581;28;20035;-72
2023/04/26 05:33:24;;;;;;;6.10;3.75;;;15.00;99.90;;;;;;5111923;28;20024;-75
2023/04/26 05:35:52;;;;;;;5.28;3.58;;;15.00;99.90;;;;;;5112282;28;20539;-72
2023/04/26 05:38:19;;;;;;;4.20;3.60;;;14.90;99.90;;;;;;5111814;28;20027;-72
2023/04/26 05:40:47;;;;;;;4.18;3.38;;;15.00;99.90;;;;;;5112071;28;20099;-72
2023/04/26 05:43:12;;;;;;;3.65;3.25;;;15.00;99.90;;;;;;5111591;28;20080;-71
2023/04/26 05:45:38;;;;;;;4.57;3.10;;;15.10;99.90;;;;;;5110983;28;20024;-71
2023/04/26 05:48:04;;;;;;;4.72;3.20;;;15.10;99.90;;;;;;5110435;28;20500;-72
2023/04/26 05:50:30;;;;;;;4.57;3.40;;;15.10;99.90;;;;;;5111693;28;20035;-71
2023/04/26 05:52:56;;;;;;;4.25;3.53;;;15.10;99.90;;;;;;5111695;28;20511;-71
2023/04/26 05:55:22;;;;;;;5.07;3.30;;;15.10;99.90;;;;;;5111712;28;20024;-70
2023/04/26 05:57:47;;;;;;;6.57;3.65;;;15.10;99.90;;;;;;5111600;28;20039;-70
2023/04/26 06:00:14;;;;;;;4.45;3.65;;;15.10;99.90;;;;;;5111442;28;20153;-71
2023/04/26 06:02:40;;;;;;;4.47;3.55;;;15.10;99.90;;;;;;5093199;28;20400;-71
2023/04/26 06:05:07;;;;;;;6.13;3.70;;;15.10;99.90;;;;;;5111310;28;20020;-70
2023/04/26 06:07:33;;;;;;;5.00;3.72;;;15.10;99.90;;;;;;5111341;28;20023;-70
2023/04/26 06:10:01;;;;;;;5.00;3.35;;;15.10;99.90;;;;;;5111296;28;20031;-71
2023/04/26 06:12:27;;;;;;;5.88;3.40;;;15.10;99.90;;;;;;5111354;28;20533;-70
2023/04/26 06:14:52;;;;;;;5.20;3.42;;;15.10;99.90;;;;;;5111263;28;20024;-70
2023/04/26 06:17:18;;;;;;;4.45;3.47;;;15.10;99.90;;;;;;5111421;28;20507;-69
2023/04/26 06:19:44;;;;;;;4.13;3.33;;;15.10;99.90;;;;;;5111200;28;20532;-71
2023/04/26 06:22:09;;;;;;;3.85;3.00;;;15.10;99.90;;;;;;5111427;28;20080;-72
2023/04/26 06:24:35;;;;;;;3.60;3.13;;;15.10;99.90;;;;;;5111729;28;20714;-71
2023/04/26 06:27:01;;;;;;;3.90;3.10;;;15.10;99.90;;;;;;5110913;28;20027;-71
2023/04/26 06:29:31;;;;;;;3.33;3.03;;;15.10;99.90;;;;;;5110667;28;20028;-72
2023/04/26 06:31:56;;;;;;;3.30;2.80;;;15.10;99.90;;;;;;5110963;28;20032;-71
2023/04/26 06:34:22;;;;;;;4.07;2.85;;;15.20;99.90;;;;;;5111592;28;20043;-71
2023/04/26 06:36:48;;;;;;;5.55;2.97;;;15.20;99.90;;;;;;5111446;28;20036;-70
2023/04/26 06:39:14;;;;;;;3.40;2.55;;;15.20;99.90;;;;;;5111877;28;20023;-71
2023/04/26 06:41:40;;;;;;;2.78;2.58;;;15.20;99.90;;;;;;5111180;28;20032;-71
2023/04/26 06:44:06;;;;;;;3.58;2.70;;;15.20;99.90;;;;;;5111029;28;20016;-71
2023/04/26 06:46:31;;;;;;;3.53;2.30;;;15.30;99.90;;;;;;5111287;28;20100;-71
2023/04/26 06:48:57;;;;;;;2.80;2.50;;;15.30;99.90;;;;;;5113576;28;20103;-71
2023/04/26 06:51:22;;;;;;;2.25;1.90;;;15.30;99.90;;;;;;5114921;28;20040;-72
2023/04/26 06:53:48;;;;;;;3.47;2.00;;;15.30;99.90;;;;;;5115197;28;20028;-72
2023/04/26 06:56:14;;;;;;;2.17;1.98;;;15.30;99.90;;;;;;5115124;28;20510;-72
2023/04/26 06:58:56;;;;;;;2.55;1.83;;;15.30;99.90;;;;;;5096274;28;20012;-72
2023/04/26 07:01:22;;;;;;;3.25;1.60;;;15.30;99.90;;;;;;5115023;28;20061;-72
2023/04/26 07:03:47;;;;;;;3.40;1.60;;;15.20;99.90;;;;;;5114822;28;20047;-71
2023/04/26 07:06:13;;;;;;;2.70;1.70;;;15.30;99.90;;;;;;5116499;28;20027;-72
2023/04/26 07:08:39;;;;;;;1.92;1.70;;;15.30;99.90;;;;;;5116171;28;20026;-72
2023/04/26 07:11:09;;;;;;;3.13;1.75;;;15.30;99.90;;;;;;5115140;28;20036;-71
2023/04/26 07:13:35;;;;;;;2.45;1.80;;;15.30;99.90;;;;;;5114652;28;20024;-72
2023/04/26 07:16:00;;;;;;;2.22;1.92;;;15.40;99.90;;;;;;5114692;28;20138;-71
2023/04/26 07:18:26;;;;;;;3.05;1.90;;;15.40;99.90;;;;;;5114444;28;20028;-71
2023/04/26 07:20:52;;;;;;;2.75;1.77;;;15.40;99.90;;;;;;5114452;28;20103;-72
2023/04/26 07:23:17;;;;;;;2.95;1.80;;;15.40;99.90;;;;;;5114493;28;20103;-71
2023/04/26 07:25:43;;;;;;;2.03;1.85;;;15.40;99.90;;;;;;5114521;28;20081;-72
2023/04/26 07:28:08;;;;;;;4.68;2.20;;;15.40;99.90;;;;;;5114053;28;20027;-71
2023/04/26 07:30:34;;;;;;;2.75;1.90;;;15.40;99.90;;;;;;5114363;28;20034;-72
2023/04/26 07:33:00;;;;;;;3.70;1.80;;;15.40;99.90;;;;;;5114371;28;20389;-72
2023/04/26 07:35:26;;;;;;;3.58;1.70;;;15.50;99.90;;;;;;5114196;28;20024;-73
2023/04/26 07:37:52;;;;;;;2.22;1.70;;;15.50;99.90;;;;;;5114213;28;20130;-74
2023/04/26 07:40:18;;;;;;;3.25;1.70;;;15.50;99.90;;;;;;5113991;28;20028;-72
2023/04/26 07:42:44;;;;;;;2.45;1.90;;;15.50;99.90;;;;;;5113756;28;20020;-72
2023/04/26 07:45:10;;;;;;;2.05;1.88;;;15.50;99.90;;;;;;5114339;28;20091;-72
2023/04/26 07:47:36;;;;;;;2.97;1.80;;;15.50;99.90;;;;;;5114211;28;20045;-73
2023/04/26 07:50:02;;;;;;;2.42;1.80;;;15.50;99.90;;;;;;5114716;28;20522;-74
2023/04/26 07:52:27;;;;;;;2.95;1.70;;;15.50;99.90;;;;;;5113954;28;20400;-73
2023/04/26 07:54:53;;;;;;;3.83;1.90;;;15.50;99.90;;;;;;5114461;28;20074;-74
2023/04/26 07:57:19;;;;;;;3.30;2.00;;;15.60;99.90;;;;;;5113961;28;20024;-74
2023/04/26 07:59:44;;;;;;;2.25;2.05;;;15.70;99.90;;;;;;5112667;28;20024;-74
2023/04/26 08:02:10;;;;;;;4.18;2.65;;;15.70;99.90;;;;;;5113613;28;20054;-74
2023/04/26 08:04:36;;;;;;;3.95;2.60;;;15.60;99.90;;;;;;5113553;28;20416;-74
2023/04/26 08:07:01;;;;;;;3.13;2.50;;;15.70;99.90;;;;;;5113576;28;20020;-74
2023/04/26 08:09:29;;;;;;;2.97;2.30;;;15.70;99.90;;;;;;5113237;28;20046;-74
2023/04/26 08:11:55;;;;;;;3.00;2.70;;;15.70;99.90;;;;;;5113214;28;20130;-74
2023/04/26 08:14:21;;;;;;;2.55;2.33;;;15.80;99.90;;;;;;5113321;28;20377;-75
2023/04/26 08:16:47;;;;;;;2.20;2.00;;;15.80;99.90;;;;;;5113617;28;20282;-73
2023/04/26 08:19:12;;;;;;;2.42;2.20;;;15.80;99.90;;;;;;5113841;28;20034;-74
2023/04/26 08:21:39;;;;;;;3.30;2.20;;;15.90;99.90;;;;;;5113649;28;20534;-74
2023/04/26 08:24:06;;;;;;;2.40;2.20;;;16.00;99.90;;;;;;5113727;28;20016;-74
2023/04/26 08:26:31;;;;;;;2.80;2.10;;;15.90;99.90;;;;;;5113060;28;20027;-74
2023/04/26 08:28:57;;;;;;;1.70;1.60;;;16.00;99.90;;;;;;5113451;28;20063;-74
2023/04/26 08:31:23;;;;;;;1.85;1.73;;;16.00;99.90;;;;;;5113097;28;20069;-74
2023/04/26 08:33:48;;;;;;;1.65;1.55;;;16.00;99.90;;;;;;5113008;28;20118;-74
2023/04/26 08:36:14;;;;;;;1.65;1.55;;;16.10;99.90;;;;;;5113016;28;20110;-74
2023/04/26 08:38:39;;;;;;;2.22;2.03;;;16.20;99.90;;;;;;5113677;28;20492;-74
2023/04/26 08:41:11;;;;;;;2.42;1.70;;;16.30;99.90;;;;;;5112610;28;20532;-74
2023/04/26 08:43:38;;;;;;;1.70;1.60;;;16.40;99.90;;;;;;5113362;28;20019;-74
2023/04/26 08:46:08;;;;;;;2.50;1.73;;;16.40;99.90;;;;;;5113017;28;20023;-74
2023/04/26 08:48:36;;;;;;;2.35;1.40;;;16.50;99.90;;;;;;5112915;28;20023;-74
2023/04/26 08:51:02;;;;;;;1.40;1.30;;;16.50;99.90;;;;;;5112840;28;20035;-74
2023/04/26 08:53:30;;;;;;;2.47;1.10;;;16.50;99.90;;;;;;5112715;28;20097;-74
2023/04/26 08:55:57;;;;;;;1.33;1.05;;;16.50;99.90;;;;;;5112938;28;20511;-75
2023/04/26 08:58:22;;;;;;;1.10;1.00;;;16.50;99.90;;;;;;5112688;28;20031;-75
2023/04/26 09:00:49;;;;;;;3.22;1.10;;;16.50;99.90;;;;;;5112609;28;20032;-73
2023/04/26 09:03:15;;;;;;;2.58;1.00;;;16.40;99.90;;;;;;5112868;28;20415;-74
2023/04/26 09:05:44;;;;;;;2.28;0.93;;;16.40;99.90;;;;;;5112710;28;20107;-74
2023/04/26 09:08:15;;;;;;;2.33;1.10;;;16.40;99.90;;;;;;5112589;28;20511;-74
2023/04/26 09:10:41;;;;;;;1.42;1.00;;;16.50;99.90;;;;;;5112159;28;20102;-74
2023/04/26 09:13:06;;;;;;;0.80;0.70;;;16.60;99.90;;;;;;5112425;28;20058;-74
2023/04/26 09:15:32;;;;;;;1.17;0.70;;;16.50;99.90;;;;;;5112653;28;20089;-75
2023/04/26 09:18:19;;;;;;;0.60;0.60;;;16.60;99.90;;;;;;5112438;28;20034;-76
2023/04/26 09:20:45;;;;;;;2.72;1.85;;;16.60;99.90;;;;;;5112236;28;20027;-75
2023/04/26 09:23:11;;;;;;;2.92;2.30;;;16.60;99.90;;;;;;5112044;27;20043;-76
2023/04/26 09:25:37;;;;;;;3.40;3.00;;;16.70;99.90;;;;;;5111687;28;20104;-76
2023/04/26 09:28:03;;;;;;;1.50;1.25;;;16.90;99.90;;;;;;5111937;28;20027;-77
2023/04/26 09:30:30;;;;;;;2.25;2.05;;;16.80;99.90;;;;;;5112125;28;20031;-76
2023/04/26 09:33:05;;;;;;;1.17;1.08;;;16.80;99.90;;;;;;5112133;28;20063;-76
2023/04/26 09:35:41;;;;;;;0.90;0.90;;;16.60;99.90;;;;;;5113050;28;20028;-76
2023/04/26 09:38:08;;;;;;;0.90;0.90;;;16.60;99.90;;;;;;5112092;28;20080;-76
2023/04/26 09:40:36;;;;;;;2.20;2.00;;;16.80;99.90;;;;;;5112597;28;20482;-76
2023/04/26 09:43:04;;;;;;;0.98;0.90;;;16.90;99.90;;;;;;5094138;28;20127;-75
2023/04/26 09:45:31;;;;;;;0.85;0.85;;;16.90;99.90;;;;;;5111998;28;20514;-75
2023/04/26 09:48:17;;;;;;;1.60;1.50;;;17.00;99.90;;;;;;5111975;28;20032;-76
2023/04/26 09:50:47;;;;;;;0.90;0.90;;;17.10;99.90;;;;;;5112141;28;20124;-76
2023/04/26 09:53:27;;;;;;;0.80;0.80;;;17.10;99.90;;;;;;5111690;28;20023;-76
2023/04/26 09:56:05;;;;;;;1.23;1.00;;;17.10;99.90;;;;;;5093875;28;20365;-74
2023/04/26 09:58:31;;;;;;;0.75;0.75;;;17.00;99.90;;;;;;5112042;28;20024;-75
2023/04/26 10:00:58;;;;;;;0.95;0.70;;;17.00;99.90;;;;;;5093800;28;20396;-75
2023/04/26 10:03:24;;;;;;;0.75;0.75;;;17.00;99.90;;;;;;5111788;28;20024;-74
2023/04/26 10:05:50;;;;;;;0.60;0.60;;;17.00;99.90;;;;;;5111574;28;20020;-75
2023/04/26 10:08:16;;;;;;;0.75;0.75;;;17.00;99.90;;;;;;5111168;28;20381;-75
2023/04/26 10:10:42;;;;;;;0.70;0.60;;;17.10;99.90;;;;;;5111720;28;20050;-75
2023/04/26 10:13:07;;;;;;;0.63;0.60;;;17.00;99.90;;;;;;5112222;28;20068;-75
2023/04/26 10:15:34;;;;;;;1.17;0.70;;;17.00;99.90;;;;;;5111769;28;20542;-75
2023/04/26 10:18:00;;;;;;;0.70;0.70;;;17.10;99.90;;;;;;5111855;28;20019;-74
2023/04/26 10:20:28;;;;;;;0.85;0.60;;;17.10;99.90;;;;;;5111709;28;20022;-75
2023/04/26 10:23:00;;;;;;;0.70;0.70;;;17.20;99.90;;;;;;5111833;28;20039;-74
2023/04/26 10:25:38;;;;;;;1.13;0.82;;;17.20;99.90;;;;;;5116280;28;20438;-75
2023/04/26 10:28:05;;;;;;;2.15;0.70;;;17.30;99.90;;;;;;5115890;28;20080;-75
2023/04/26 10:30:31;;;;;;;0.75;0.75;;;17.40;99.90;;;;;;5115819;28;20518;-74
2023/04/26 10:32:57;;;;;;;0.60;0.60;;;17.30;99.90;;;;;;5115575;28;20488;-74
2023/04/26 10:35:26;;;;;;;0.85;0.60;;;17.40;99.90;;;;;;5115609;28;20039;-74
2023/04/26 10:38:12;;;;;;;1.30;0.80;;;17.40;99.90;;;;;;5115094;28;20674;-74
2023/04/26 10:40:39;;;;;;;2.05;0.70;;;17.30;99.90;;;;;;5115050;28;20444;-75
2023/04/26 10:43:08;;;;;;;1.55;0.70;;;17.30;99.90;;;;;;5115269;28;20036;-75
2023/04/26 10:45:36;;;;;;;0.70;0.70;;;17.30;99.90;;;;;;5115437;28;20480;-74
2023/04/26 10:48:21;;;;;;;0.80;0.73;;;17.40;99.90;;;;;;5114925;28;20019;-75
2023/04/26 10:51:04;;;;;;;1.05;0.90;;;17.40;99.90;;;;;;5115151;28;20024;-74
2023/04/26 10:53:31;;;;;;;0.70;0.70;;;17.50;99.90;;;;;;5115072;28;20065;-75
2023/04/26 10:55:57;;;;;;;0.88;0.73;;;17.50;99.90;;;;;;5114917;28;20028;-75
2023/04/26 10:58:30;;;;;;;0.80;0.80;;;17.40;99.90;;;;;;5115161;28;20027;-75
2023/04/26 11:01:16;;;;;;;1.13;0.85;;;17.30;99.90;;;;;;5115056;28;20030;-74
2023/04/26 11:04:03;;;;;;;1.25;0.77;;;17.30;99.90;;;;;;5115082;28;20058;-75
2023/04/26 11:06:48;;;;;;;0.73;0.70;;;17.30;99.90;;;;;;5114939;28;20089;-75
2023/04/26 11:09:41;;;;;;;1.08;0.70;;;17.40;99.90;;;;;;5114869;28;20488;-75
2023/04/26 11:12:11;;;;;;;0.63;0.60;;;17.40;99.90;;;;;;5108297;28;20043;-75
2023/04/26 11:14:38;;;;;;;3.47;0.80;;;17.50;99.90;;;;;;5115103;28;20024;-75
2023/04/26 11:17:05;;;;;;;0.70;0.60;;;17.40;99.90;;;;;;5115195;28;20027;-75
2023/04/26 11:19:31;;;;;;;1.70;0.98;;;17.30;99.90;;;;;;5114978;28;20404;-75
2023/04/26 11:21:59;;;;;;;1.00;0.70;;;17.40;99.90;;;;;;5115023;28;20030;-74
2023/04/26 11:24:27;;;;;;;1.17;0.90;;;17.40;99.90;;;;;;5114502;28;20514;-75
2023/04/26 11:26:53;;;;;;;2.55;0.82;;;17.40;99.90;;;;;;5114724;28;20052;-75
2023/04/26 11:29:20;;;;;;;0.63;0.63;;;17.30;99.90;;;;;;5115733;28;20400;-75
2023/04/26 11:31:56;;;;;;;0.60;0.60;;;17.30;99.90;;;;;;5114600;28;20027;-75
2023/04/26 11:34:35;;;;;;;0.80;0.70;;;17.30;99.90;;;;;;5114420;28;20032;-75
2023/04/26 11:37:03;;;;;;;0.80;0.80;;;17.30;99.90;;;;;;5114494;28;20084;-75
2023/04/26 11:39:31;;;;;;;0.63;0.63;;;17.40;99.90;;;;;;5114383;28;20377;-75
2023/04/26 11:42:09;;;;;;;1.95;0.80;;;17.40;99.90;;;;;;5114423;28;20019;-75
2023/04/26 11:44:36;;;;;;;1.20;0.90;;;17.50;99.90;;;;;;5114387;28;20031;-74
2023/04/26 11:47:04;;;;;;;0.70;0.70;;;17.50;99.90;;;;;;5114226;28;20023;-75
2023/04/26 11:49:31;;;;;;;1.13;0.90;;;17.60;99.90;;;;;;5114381;28;20026;-75
2023/04/26 11:51:58;;;;;;;1.40;0.80;;;17.60;99.90;;;;;;5114395;28;20043;-75
2023/04/26 11:54:34;;;;;;;1.67;0.90;;;17.60;99.90;;;;;;5114555;28;20499;-75
2023/04/26 11:57:01;;;;;;;1.30;0.90;;;17.60;99.90;;;;;;5114065;28;20455;-75
2023/04/26 11:59:29;;;;;;;0.80;0.80;;;17.60;99.90;;;;;;5114015;28;20042;-75
2023/04/26 12:01:56;;;;;;;0.80;0.80;;;17.50;99.90;;;;;;5114201;28;20371;-75
2023/04/26 12:04:29;;;;;;;0.93;0.90;;;17.60;99.90;;;;;;5113386;28;20024;-75
2023/04/26 12:06:55;;;;;;;1.10;1.00;;;17.60;99.90;;;;;;5113637;28;20499;-75
2023/04/26 12:09:28;;;;;;;2.47;0.80;;;17.60;99.90;;;;;;5113588;28;20313;-75
2023/04/26 12:11:58;;;;;;;0.88;0.80;;;17.60;99.90;;;;;;5095334;28;20522;-75
2023/04/26 12:14:32;;;;;;;0.90;0.90;;;17.50;99.90;;;;;;5113987;28;20653;-75
2023/04/26 12:17:00;;;;;;;0.85;0.80;;;17.50;99.90;;;;;;5113534;28;20051;-75
2023/04/26 12:19:26;;;;;;;0.80;0.80;;;17.60;99.90;;;;;;5113509;28;20490;-75
2023/04/26 12:21:53;;;;;;;1.77;0.90;;;17.50;99.90;;;;;;5113378;28;20099;-74
2023/04/26 12:24:29;;;;;;;1.00;0.90;;;17.40;99.90;;;;;;5113359;28;20028;-75
2023/04/26 12:26:55;;;;;;;1.83;1.10;;;17.40;99.90;;;;;;5113840;28;20115;-74
2023/04/26 12:29:21;;;;;;;2.22;1.33;;;17.50;99.90;;;;;;5113570;28;20107;-75
2023/04/26 12:31:46;;;;;;;3.42;1.65;;;17.50;99.90;;;;;;5113286;28;20046;-75
2023/04/26 12:34:12;;;;;;;2.72;1.80;;;17.30;99.90;;;;;;5113700;28;20019;-75
2023/04/26 12:36:43;;;;;;;2.30;1.80;;;17.30;99.90;;;;;;5113387;28;20028;-75
2023/04/26 12:39:10;;;;;;;3.30;1.85;;;17.30;99.90;;;;;;5113456;28;20098;-75
2023/04/26 12:41:35;;;;;;;2.38;1.70;;;17.50;99.90;;;;;;5095409;28;20444;-75
2023/04/26 12:44:01;;;;;;;2.33;1.63;;;17.60;99.90;;;;;;5113623;28;20043;-74
2023/04/26 12:46:27;;;;;;;2.15;1.50;;;17.60;99.90;;;;;;5112006;28;20043;-75
2023/04/26 12:48:52;;;;;;;3.33;1.60;;;17.70;99.90;;;;;;5113424;28;20365;-75